createdAt,value
2017-08-08T00:01:57.779Z,6.47
2017-08-08T00:04:24.394Z,6.30
2017-08-08T00:06:51.017Z,5.80
2017-08-08T00:09:17.630Z,6.13
2017-08-08T00:11:44.352Z,7.70
2017-08-08T00:14:10.963Z,7.40
2017-08-08T00:16:37.585Z,7.27
2017-08-08T00:19:04.225Z,7.80
2017-08-08T00:21:30.858Z,7.37
2017-08-08T00:23:57.494Z,7.57
2017-08-08T00:26:24.839Z,6.80
2017-08-08T00:28:51.473Z,7.00
2017-08-08T00:31:18.106Z,6.93
2017-08-08T00:33:45.711Z,7.27
2017-08-08T00:36:12.333Z,6.80
2017-08-08T00:38:38.958Z,7.50
2017-08-08T00:41:05.556Z,7.43
2017-08-08T00:43:32.226Z,7.10
2017-08-08T00:45:58.838Z,6.83
2017-08-08T00:48:25.739Z,6.90
2017-08-08T00:50:52.353Z,6.87
2017-08-08T00:53:18.982Z,7.40
2017-08-08T00:55:45.600Z,6.87
2017-08-08T00:58:12.584Z,5.87
2017-08-08T01:00:39.187Z,7.30
2017-08-08T01:03:05.830Z,7.30
2017-08-08T01:05:32.474Z,7.00
2017-08-08T01:07:59.092Z,7.37
2017-08-08T01:10:25.728Z,7.10
2017-08-08T01:12:52.358Z,7.57
2017-08-08T01:15:18.970Z,8.00
2017-08-08T01:17:45.600Z,7.70
2017-08-08T01:20:12.239Z,7.73
2017-08-08T01:22:38.888Z,7.60
2017-08-08T01:25:05.519Z,8.80
2017-08-08T01:27:32.118Z,7.40
2017-08-08T01:29:58.746Z,8.10
2017-08-08T01:32:27.933Z,7.47
2017-08-08T01:34:54.957Z,7.80
2017-08-08T01:37:23.424Z,7.90
2017-08-08T01:39:50.116Z,8.73
2017-08-08T01:42:17.066Z,8.00
2017-08-08T01:44:45.167Z,7.90
2017-08-08T01:47:13.697Z,7.60
2017-08-08T01:49:40.358Z,8.00
2017-08-08T01:52:06.992Z,9.10
2017-08-08T01:54:33.633Z,8.00
2017-08-08T01:57:00.236Z,8.60
2017-08-08T01:59:26.851Z,7.57
2017-08-08T02:01:53.505Z,8.70
2017-08-08T02:04:20.115Z,8.53
2017-08-08T02:06:46.754Z,8.70
2017-08-08T02:09:16.199Z,8.90
2017-08-08T02:11:42.810Z,8.70
2017-08-08T02:14:09.443Z,9.70
2017-08-08T02:16:36.064Z,9.00
2017-08-08T02:19:02.681Z,8.03
2017-08-08T02:21:29.804Z,8.03
2017-08-08T02:23:56.434Z,7.70
2017-08-08T02:26:23.082Z,9.20
2017-08-08T02:28:49.720Z,8.60
2017-08-08T02:31:16.352Z,9.10
2017-08-08T02:33:42.991Z,9.10
2017-08-08T02:36:09.617Z,8.80
2017-08-08T02:38:36.238Z,8.67
2017-08-08T02:41:02.882Z,8.93
2017-08-08T02:43:29.516Z,9.70
2017-08-08T02:45:56.114Z,8.67
2017-08-08T02:48:22.751Z,8.00
2017-08-08T02:50:49.374Z,10.23
2017-08-08T02:53:15.995Z,8.53
2017-08-08T02:55:42.635Z,10.03
2017-08-08T02:58:09.299Z,8.60
2017-08-08T03:00:35.923Z,7.70
2017-08-08T03:03:02.557Z,8.70
2017-08-08T03:05:29.192Z,9.00
2017-08-08T03:07:56.136Z,7.83
2017-08-08T03:10:23.511Z,9.37
2017-08-08T03:12:50.120Z,7.80
2017-08-08T03:15:16.754Z,9.37
2017-08-08T03:17:43.393Z,7.63
2017-08-08T03:20:10.027Z,8.70
2017-08-08T03:22:36.658Z,8.10
2017-08-08T03:25:03.270Z,9.03
2017-08-08T03:27:29.938Z,9.03
2017-08-08T03:29:56.556Z,9.60
2017-08-08T03:32:23.154Z,8.63
2017-08-08T03:34:49.778Z,9.13
2017-08-08T03:37:16.423Z,9.03
2017-08-08T03:39:43.035Z,9.37
2017-08-08T03:42:09.655Z,9.93
2017-08-08T03:44:36.282Z,9.07
2017-08-08T03:47:02.902Z,8.27
2017-08-08T03:49:30.527Z,9.37
2017-08-08T03:51:57.161Z,8.67
2017-08-08T03:54:23.774Z,9.40
2017-08-08T03:56:50.408Z,8.43
2017-08-08T03:59:17.021Z,10.00
2017-08-08T04:01:43.637Z,9.73
2017-08-08T04:04:10.268Z,10.83
2017-08-08T04:06:36.890Z,9.27
2017-08-08T04:09:03.515Z,8.33
2017-08-08T04:11:30.136Z,9.33
2017-08-08T04:13:56.796Z,8.50
2017-08-08T04:16:24.077Z,8.40
2017-08-08T04:18:51.579Z,7.90
2017-08-08T04:21:18.183Z,8.10
2017-08-08T04:23:44.809Z,8.30
2017-08-08T04:26:11.439Z,8.37
2017-08-08T04:28:38.067Z,8.77
2017-08-08T04:31:04.695Z,7.20
2017-08-08T04:33:31.350Z,8.63
2017-08-08T04:35:57.993Z,8.27
2017-08-08T04:38:24.592Z,8.80
2017-08-08T04:40:51.231Z,9.13
2017-08-08T04:43:17.866Z,8.27
2017-08-08T04:45:44.515Z,7.90
2017-08-08T04:48:11.135Z,8.37
2017-08-08T04:50:38.455Z,8.97
2017-08-08T04:53:05.068Z,8.63
2017-08-08T04:55:31.695Z,8.50
2017-08-08T04:57:58.318Z,8.00
2017-08-08T05:00:24.947Z,8.90
2017-08-08T05:02:51.568Z,8.90
2017-08-08T05:05:18.194Z,7.87
2017-08-08T05:07:44.835Z,8.37
2017-08-08T05:10:11.462Z,7.80
2017-08-08T05:12:38.070Z,9.20
2017-08-08T05:15:04.686Z,9.33
2017-08-08T05:17:31.311Z,8.00
2017-08-08T05:19:57.932Z,7.30
2017-08-08T05:22:24.582Z,9.03
2017-08-08T05:24:51.211Z,9.70
2017-08-08T05:27:17.832Z,8.90
2017-08-08T05:29:44.458Z,9.17
2017-08-08T05:32:11.119Z,10.23
2017-08-08T05:34:37.723Z,7.97
2017-08-08T05:37:04.342Z,9.50
2017-08-08T05:39:30.981Z,8.80
2017-08-08T05:41:57.606Z,7.67
2017-08-08T05:44:24.239Z,7.43
2017-08-08T05:46:50.881Z,8.60
2017-08-08T05:49:17.502Z,9.77
2017-08-08T05:51:44.113Z,8.07
2017-08-08T05:54:10.744Z,7.50
2017-08-08T05:56:37.379Z,7.67
2017-08-08T05:59:04.048Z,7.13
2017-08-08T06:01:30.671Z,6.37
2017-08-08T06:03:57.544Z,6.93
2017-08-08T06:06:24.172Z,7.10
2017-08-08T06:08:51.010Z,6.50
2017-08-08T06:11:17.639Z,7.00
2017-08-08T06:13:44.267Z,6.20
2017-08-08T06:16:10.898Z,6.13
2017-08-08T06:18:37.527Z,5.63
2017-08-08T06:21:04.191Z,6.20
2017-08-08T06:23:30.816Z,5.57
2017-08-08T06:25:57.445Z,5.50
2017-08-08T06:28:24.084Z,6.10
2017-08-08T06:30:50.711Z,6.03
2017-08-08T06:33:17.379Z,6.53
2017-08-08T06:35:44.011Z,4.80
2017-08-08T06:38:10.652Z,6.93
2017-08-08T06:40:37.294Z,5.83
2017-08-08T06:43:03.898Z,6.00
2017-08-08T06:45:30.527Z,5.13
2017-08-08T06:47:57.156Z,4.67
2017-08-08T06:50:23.754Z,4.53
2017-08-08T06:52:50.391Z,5.00
2017-08-08T06:55:17.012Z,5.70
2017-08-08T06:57:43.640Z,5.70
2017-08-08T07:00:10.269Z,4.90
2017-08-08T07:02:36.911Z,5.47
2017-08-08T07:05:03.535Z,4.73
2017-08-08T07:07:30.158Z,4.63
2017-08-08T07:09:56.777Z,4.90
2017-08-08T07:12:23.408Z,5.00
2017-08-08T07:14:50.054Z,5.37
2017-08-08T07:17:16.687Z,5.40
2017-08-08T07:19:43.310Z,4.97
2017-08-08T07:22:09.946Z,5.60
2017-08-08T07:24:36.564Z,4.77
2017-08-08T07:27:03.212Z,4.70
2017-08-08T07:29:29.816Z,5.10
2017-08-08T07:31:56.451Z,5.13
2017-08-08T07:34:24.109Z,4.20
2017-08-08T07:36:50.715Z,5.03
2017-08-08T07:39:17.334Z,4.77
2017-08-08T07:41:43.955Z,4.13
2017-08-08T07:44:10.618Z,5.23
2017-08-08T07:46:37.222Z,4.27
2017-08-08T07:49:04.559Z,5.00
2017-08-08T07:51:31.196Z,4.33
2017-08-08T07:53:57.807Z,5.23
2017-08-08T07:56:24.418Z,4.30
2017-08-08T07:58:51.067Z,4.70
2017-08-08T08:01:17.696Z,5.27
2017-08-08T08:03:44.327Z,4.43
2017-08-08T08:06:11.840Z,4.87
2017-08-08T08:08:38.470Z,4.80
2017-08-08T08:11:05.104Z,6.00
2017-08-08T08:13:31.755Z,4.90
2017-08-08T08:15:58.928Z,4.17
2017-08-08T08:18:25.546Z,4.23
2017-08-08T08:20:52.208Z,5.00
2017-08-08T08:23:18.859Z,4.43
2017-08-08T08:25:45.482Z,4.80
2017-08-08T08:28:12.114Z,4.03
2017-08-08T08:30:39.479Z,4.53
2017-08-08T08:33:06.170Z,4.63
2017-08-08T08:35:32.793Z,4.67
2017-08-08T08:37:59.458Z,4.40
2017-08-08T08:40:26.083Z,4.77
2017-08-08T08:42:52.724Z,5.77
2017-08-08T08:45:19.351Z,5.03
2017-08-08T08:47:45.959Z,4.73
2017-08-08T08:50:12.572Z,4.27
2017-08-08T08:52:39.204Z,5.27
2017-08-08T08:55:05.831Z,5.10
2017-08-08T08:57:32.438Z,4.70
2017-08-08T08:59:59.067Z,5.07
2017-08-08T09:02:25.719Z,4.97
2017-08-08T09:04:52.327Z,4.40
2017-08-08T09:07:18.979Z,4.70
2017-08-08T09:09:45.615Z,4.90
2017-08-08T09:12:12.243Z,4.43
2017-08-08T09:14:38.844Z,4.50
2017-08-08T09:17:05.478Z,4.93
2017-08-08T09:19:32.083Z,4.20
2017-08-08T09:21:58.698Z,4.33
2017-08-08T09:24:25.340Z,4.80
2017-08-08T09:26:51.959Z,4.13
2017-08-08T09:29:18.614Z,3.97
2017-08-08T09:31:45.220Z,4.03
2017-08-08T09:34:11.824Z,4.43
2017-08-08T09:36:38.479Z,4.40
2017-08-08T09:39:05.088Z,3.77
2017-08-08T09:41:31.686Z,4.40
2017-08-08T09:43:58.310Z,4.43
2017-08-08T09:46:25.675Z,4.50
2017-08-08T09:48:52.319Z,3.90
2017-08-08T09:51:18.970Z,4.60
2017-08-08T09:53:45.619Z,3.80
2017-08-08T09:56:12.231Z,4.00
2017-08-08T09:58:38.870Z,4.43
2017-08-08T10:01:05.494Z,4.07
2017-08-08T10:03:32.119Z,3.80
2017-08-08T10:05:58.766Z,5.03
2017-08-08T10:08:25.394Z,4.77
2017-08-08T10:10:52.031Z,3.87
2017-08-08T10:13:18.738Z,4.77
2017-08-08T10:15:45.371Z,4.27
2017-08-08T10:18:11.995Z,4.67
2017-08-08T10:20:38.651Z,4.10
2017-08-08T10:23:05.263Z,4.60
2017-08-08T10:25:31.894Z,4.53
2017-08-08T10:27:58.515Z,5.10
2017-08-08T10:30:25.141Z,5.13
2017-08-08T10:32:51.781Z,4.63
2017-08-08T10:35:18.386Z,5.60
2017-08-08T10:37:45.033Z,5.43
2017-08-08T10:40:11.647Z,5.27
2017-08-08T10:42:38.273Z,5.20
2017-08-08T10:45:04.903Z,4.97
2017-08-08T10:47:31.518Z,5.10
2017-08-08T10:49:58.146Z,5.10
2017-08-08T10:52:24.738Z,4.80
2017-08-08T10:54:51.376Z,6.03
2017-08-08T10:57:17.983Z,5.53
2017-08-08T10:59:44.607Z,5.57
2017-08-08T11:02:11.234Z,5.40
2017-08-08T11:04:37.862Z,5.33
2017-08-08T11:07:04.491Z,5.90
2017-08-08T11:09:31.115Z,5.60
2017-08-08T11:11:57.745Z,5.70
2017-08-08T11:14:24.356Z,5.80
2017-08-08T11:16:50.989Z,5.83
2017-08-08T11:19:17.602Z,5.90
2017-08-08T11:21:44.211Z,6.00
2017-08-08T11:24:10.842Z,6.60
2017-08-08T11:26:37.462Z,5.50
2017-08-08T11:29:04.095Z,5.10
2017-08-08T11:31:30.696Z,5.10
2017-08-08T11:33:57.348Z,6.70
2017-08-08T11:36:24.042Z,6.60
2017-08-08T11:38:51.418Z,6.57
2017-08-08T11:41:18.096Z,5.63
2017-08-08T11:43:44.723Z,5.97
2017-08-08T11:46:11.340Z,6.40
2017-08-08T11:48:37.967Z,6.90
2017-08-08T11:51:05.028Z,6.40
2017-08-08T11:53:32.678Z,5.83
2017-08-08T11:55:59.363Z,6.97
2017-08-08T11:58:25.985Z,6.10
2017-08-08T12:00:52.623Z,6.80
2017-08-08T12:03:19.254Z,6.23
2017-08-08T12:05:45.875Z,5.43
2017-08-08T12:08:12.515Z,6.40
2017-08-08T12:10:39.126Z,8.03
2017-08-08T12:13:05.736Z,7.53
2017-08-08T12:15:32.383Z,7.37
2017-08-08T12:17:58.987Z,6.57
2017-08-08T12:20:25.600Z,6.47
2017-08-08T12:22:52.246Z,7.63
2017-08-08T12:25:18.858Z,6.20
2017-08-08T12:27:45.499Z,6.23
2017-08-08T12:30:12.126Z,7.27
2017-08-08T12:32:38.804Z,6.20
2017-08-08T12:35:05.430Z,6.90
2017-08-08T12:37:32.050Z,6.70
2017-08-08T12:39:58.675Z,7.17
2017-08-08T12:42:25.312Z,6.80
2017-08-08T12:44:51.954Z,6.17
2017-08-08T12:47:18.572Z,5.20
2017-08-08T12:49:45.203Z,6.00
2017-08-08T12:52:11.823Z,6.50
2017-08-08T12:54:38.430Z,5.10
2017-08-08T12:57:05.050Z,5.43
2017-08-08T12:59:31.675Z,4.50
2017-08-08T13:01:58.359Z,4.80
2017-08-08T13:04:24.986Z,3.97
2017-08-08T13:06:51.608Z,2.77
2017-08-08T13:09:18.244Z,2.70
2017-08-08T13:11:44.870Z,3.30
2017-08-08T13:14:11.532Z,3.70
2017-08-08T13:16:38.175Z,4.50
2017-08-08T13:19:04.801Z,3.90
2017-08-08T13:21:31.450Z,3.67
2017-08-08T13:23:58.052Z,2.90
2017-08-08T13:26:24.685Z,3.50
2017-08-08T13:28:51.811Z,3.00
2017-08-08T13:31:18.720Z,3.37
2017-08-08T13:33:45.323Z,3.67
2017-08-08T13:36:12.159Z,3.70
2017-08-08T13:38:38.794Z,3.40
2017-08-08T13:41:05.396Z,3.60
2017-08-08T13:43:32.027Z,3.63
2017-08-08T13:45:58.668Z,4.27
2017-08-08T13:48:25.263Z,5.27
2017-08-08T13:50:51.898Z,5.97
2017-08-08T13:53:18.513Z,5.83
2017-08-08T13:55:45.163Z,5.33
2017-08-08T13:58:11.771Z,7.03
2017-08-08T14:00:38.399Z,8.03
2017-08-08T14:03:05.035Z,8.07
2017-08-08T14:05:31.652Z,8.67
2017-08-08T14:07:58.296Z,7.63
2017-08-08T14:10:24.902Z,7.10
2017-08-08T14:12:51.535Z,8.67
2017-08-08T14:15:18.188Z,6.77
2017-08-08T14:17:45.116Z,8.20
2017-08-08T14:20:11.753Z,9.10
2017-08-08T14:22:38.375Z,8.40
2017-08-08T14:25:05.031Z,8.17
2017-08-08T14:27:31.640Z,9.90
2017-08-08T14:29:58.252Z,9.93
2017-08-08T14:32:24.916Z,9.83
2017-08-08T14:34:51.567Z,8.60
2017-08-08T14:37:18.195Z,7.67
2017-08-08T14:39:44.829Z,10.70
2017-08-08T14:42:12.009Z,11.10
2017-08-08T14:44:38.646Z,8.97
2017-08-08T14:47:05.286Z,9.63
2017-08-08T14:49:31.922Z,10.97
2017-08-08T14:51:58.518Z,8.60
2017-08-08T14:54:25.152Z,10.23
2017-08-08T14:56:51.792Z,10.60
2017-08-08T14:59:18.435Z,10.60
2017-08-08T15:01:45.060Z,9.80
2017-08-08T15:04:11.699Z,11.00
2017-08-08T15:06:38.336Z,10.30
2017-08-08T15:09:04.956Z,9.93
2017-08-08T15:11:31.598Z,9.50
2017-08-08T15:13:58.231Z,9.87
2017-08-08T15:16:24.889Z,10.87
2017-08-08T15:18:52.020Z,9.20
2017-08-08T15:21:18.679Z,11.90
2017-08-08T15:23:45.318Z,9.53
2017-08-08T15:26:11.959Z,9.30
2017-08-08T15:28:38.572Z,9.23
2017-08-08T15:31:05.208Z,9.50
2017-08-08T15:33:31.820Z,9.13
2017-08-08T15:35:58.456Z,10.40
2017-08-08T15:38:25.088Z,9.17
2017-08-08T15:40:51.708Z,10.33
2017-08-08T15:43:18.354Z,10.40
2017-08-08T15:45:45.912Z,11.70
2017-08-08T15:48:12.562Z,12.50
2017-08-08T15:50:39.178Z,14.77
2017-08-08T15:53:05.798Z,17.80
2017-08-08T15:55:32.435Z,16.60
2017-08-08T15:57:59.057Z,18.70
2017-08-08T16:00:25.703Z,16.97
2017-08-08T16:02:52.351Z,19.10
2017-08-08T16:05:19.005Z,21.03
2017-08-08T16:07:45.630Z,23.73
2017-08-08T16:10:12.238Z,26.40
2017-08-08T16:12:38.911Z,23.77
2017-08-08T16:15:05.539Z,22.63
2017-08-08T16:17:32.180Z,24.27
2017-08-08T16:19:58.819Z,24.40
2017-08-08T16:22:25.446Z,26.97
2017-08-08T16:24:52.118Z,28.33
2017-08-08T16:27:18.759Z,32.30
2017-08-08T16:29:45.413Z,33.23
2017-08-08T16:32:12.067Z,32.20
2017-08-08T16:34:38.736Z,30.40
2017-08-08T16:37:05.372Z,29.50
2017-08-08T16:39:31.987Z,25.40
2017-08-08T16:41:58.624Z,28.53
2017-08-08T16:44:25.259Z,27.97
2017-08-08T16:46:51.926Z,26.30
2017-08-08T16:49:19.411Z,19.70
2017-08-08T16:51:46.039Z,20.67
2017-08-08T16:54:12.682Z,20.53
2017-08-08T16:56:39.300Z,19.27
2017-08-08T16:59:06.094Z,16.70
2017-08-08T17:01:32.739Z,20.53
2017-08-08T17:03:59.391Z,19.70
2017-08-08T17:06:27.678Z,20.90
2017-08-08T17:08:54.310Z,23.03
2017-08-08T17:11:20.976Z,25.60
2017-08-08T17:13:47.620Z,29.03
2017-08-08T17:16:14.315Z,27.60
2017-08-08T17:18:41.077Z,32.50
2017-08-08T17:21:07.703Z,29.57
2017-08-08T17:23:34.331Z,34.63
2017-08-08T17:26:00.996Z,38.13
2017-08-08T17:28:27.621Z,38.50
2017-08-08T17:30:54.247Z,38.80
2017-08-08T17:33:20.891Z,44.17
2017-08-08T17:35:47.523Z,36.70
2017-08-08T17:38:14.424Z,38.37
2017-08-08T17:40:41.072Z,36.27
2017-08-08T17:43:07.732Z,33.37
2017-08-08T17:45:34.660Z,30.67
2017-08-08T17:48:01.285Z,33.87
2017-08-08T17:50:27.926Z,31.40
2017-08-08T17:52:54.576Z,30.13
2017-08-08T17:55:21.192Z,31.50
2017-08-08T17:57:47.836Z,32.03
2017-08-08T18:00:14.488Z,32.13
2017-08-08T18:02:41.116Z,28.47
2017-08-08T18:05:07.754Z,30.10
2017-08-08T18:07:34.391Z,30.13
2017-08-08T18:10:01.017Z,29.40
2017-08-08T18:12:27.654Z,24.47
2017-08-08T18:14:54.297Z,16.20
2017-08-08T18:17:20.911Z,15.60
2017-08-08T18:19:47.822Z,17.87
2017-08-08T18:22:14.455Z,17.40
2017-08-08T18:24:41.110Z,17.27
2017-08-08T18:27:07.738Z,17.77
2017-08-08T18:29:34.378Z,18.47
2017-08-08T18:32:01.003Z,18.20
2017-08-08T18:34:27.635Z,18.60
2017-08-08T18:36:54.263Z,17.87
2017-08-08T18:39:20.895Z,18.97
2017-08-08T18:41:47.532Z,20.40
2017-08-08T18:44:14.206Z,17.03
2017-08-08T18:46:40.852Z,16.00
2017-08-08T18:49:07.490Z,17.73
2017-08-08T18:51:34.251Z,20.27
2017-08-08T18:54:00.933Z,19.47
2017-08-08T18:56:27.579Z,17.87
2017-08-08T18:58:54.331Z,13.87
2017-08-08T19:01:21.077Z,11.10
2017-08-08T19:03:47.750Z,11.63
2017-08-08T19:06:14.627Z,13.20
2017-08-08T19:08:41.530Z,12.77
2017-08-08T19:11:08.315Z,13.07
2017-08-08T19:13:34.962Z,11.10
2017-08-08T19:16:01.678Z,11.20
2017-08-08T19:18:28.356Z,9.53
2017-08-08T19:20:54.995Z,9.47
2017-08-08T19:23:21.916Z,9.40
2017-08-08T19:25:48.837Z,10.57
2017-08-08T19:28:15.759Z,8.40
2017-08-08T19:30:45.280Z,9.27
2017-08-08T19:33:12.325Z,8.60
2017-08-08T19:35:42.759Z,10.03
2017-08-08T19:38:10.360Z,8.60
2017-08-08T19:40:37.406Z,7.70
2017-08-08T19:43:04.096Z,8.50
2017-08-08T19:45:30.936Z,9.80
2017-08-08T19:47:57.745Z,9.37
2017-08-08T19:50:24.702Z,10.77
2017-08-08T19:52:51.664Z,10.67
2017-08-08T19:55:18.583Z,11.97
2017-08-08T19:57:45.573Z,13.30
2017-08-08T20:00:13.125Z,14.53
2017-08-08T20:02:40.128Z,13.03
2017-08-08T20:05:07.066Z,13.27
2017-08-08T20:07:37.001Z,13.10
2017-08-08T20:10:05.108Z,15.70
2017-08-08T20:12:33.455Z,14.83
2017-08-08T20:15:00.345Z,15.90
2017-08-08T20:17:27.311Z,16.60
2017-08-08T20:19:54.406Z,16.33
2017-08-08T20:22:21.240Z,16.80
2017-08-08T20:24:47.934Z,17.40
2017-08-08T20:27:14.935Z,16.80
2017-08-08T20:29:46.354Z,18.33
2017-08-08T20:32:14.053Z,16.33
2017-08-08T20:34:42.587Z,16.23
2017-08-08T20:37:13.754Z,13.60
2017-08-08T20:39:40.447Z,16.53
2017-08-08T20:42:07.416Z,18.17
2017-08-08T20:44:34.045Z,19.90
2017-08-08T20:47:02.980Z,21.17
2017-08-08T20:49:31.110Z,17.07
2017-08-08T20:51:59.242Z,17.93
2017-08-08T20:54:27.351Z,20.07
2017-08-08T20:56:55.943Z,20.10
2017-08-08T20:59:22.579Z,21.30
2017-08-08T21:01:49.231Z,21.33
2017-08-08T21:04:16.458Z,20.97
2017-08-08T21:06:44.136Z,24.80
2017-08-08T21:09:10.770Z,26.20
2017-08-08T21:11:37.406Z,23.77
2017-08-08T21:14:06.951Z,26.63
2017-08-08T21:16:34.790Z,29.30
2017-08-08T21:19:01.717Z,30.10
2017-08-08T21:21:28.385Z,30.33
2017-08-08T21:23:57.126Z,30.20
2017-08-08T21:26:26.197Z,30.87
2017-08-08T21:28:53.587Z,30.23
2017-08-08T21:31:20.540Z,30.60
2017-08-08T21:33:49.476Z,32.23
2017-08-08T21:36:17.033Z,33.20
2017-08-08T21:38:44.416Z,34.33
2017-08-08T21:41:11.039Z,36.43
2017-08-08T21:43:38.064Z,34.07
2017-08-08T21:46:04.691Z,34.17
2017-08-08T21:48:31.358Z,34.83
2017-08-08T21:50:58.083Z,35.70
2017-08-08T21:53:24.704Z,35.73
2017-08-08T21:55:51.330Z,38.87
2017-08-08T21:58:17.985Z,39.60
2017-08-08T22:00:44.666Z,35.00
2017-08-08T22:03:11.611Z,40.37
2017-08-08T22:05:39.100Z,38.23
2017-08-08T22:08:06.005Z,39.43
2017-08-08T22:10:33.447Z,37.37
2017-08-08T22:13:00.079Z,40.00
2017-08-08T22:15:26.735Z,42.67
2017-08-08T22:17:53.397Z,42.67
2017-08-08T22:20:21.893Z,37.47
2017-08-08T22:22:48.821Z,37.90
2017-08-08T22:25:15.813Z,37.87
2017-08-08T22:27:42.459Z,37.13
2017-08-08T22:30:09.067Z,39.07
2017-08-08T22:32:35.827Z,42.17
2017-08-08T22:35:02.467Z,40.37
2017-08-08T22:37:29.120Z,44.17
2017-08-08T22:39:55.754Z,45.80
2017-08-08T22:42:22.398Z,46.60
2017-08-08T22:44:49.044Z,47.43
2017-08-08T22:47:15.965Z,48.07
2017-08-08T22:49:42.583Z,49.20
2017-08-08T22:52:09.237Z,46.07
2017-08-08T22:54:35.880Z,42.77
2017-08-08T22:57:02.519Z,44.80
2017-08-08T22:59:29.186Z,39.83
2017-08-08T23:01:55.798Z,35.80
2017-08-08T23:04:22.479Z,37.20
2017-08-08T23:06:49.106Z,35.73
2017-08-08T23:09:15.745Z,49.27
2017-08-08T23:11:42.373Z,46.73
2017-08-08T23:14:09.013Z,42.43
2017-08-08T23:16:35.634Z,37.80
2017-08-08T23:19:02.428Z,38.30
2017-08-08T23:21:29.038Z,38.27
2017-08-08T23:23:55.684Z,45.27
2017-08-08T23:26:22.297Z,48.03
2017-08-08T23:28:48.963Z,39.80
2017-08-08T23:31:15.582Z,40.27
2017-08-08T23:33:42.191Z,42.57
2017-08-08T23:36:08.834Z,42.20
2017-08-08T23:38:35.538Z,39.20
2017-08-08T23:41:02.167Z,48.00
2017-08-08T23:43:28.799Z,45.23
2017-08-08T23:45:55.428Z,51.07
2017-08-08T23:48:22.057Z,49.07
2017-08-08T23:50:48.703Z,49.87
2017-08-08T23:53:15.339Z,51.17
2017-08-08T23:55:41.979Z,50.00
2017-08-08T23:58:08.619Z,45.70
